createdAt,value
2022-09-20T00:01:29.685Z,96138.84
2022-09-20T00:03:59.306Z,96137.31
2022-09-20T00:06:29.104Z,96139.48
2022-09-20T00:08:57.372Z,96140.73
2022-09-20T00:11:27.144Z,96143.91
2022-09-20T00:13:56.571Z,96141.08
2022-09-20T00:16:32.373Z,96140.38
2022-09-20T00:19:04.204Z,96141.54
2022-09-20T00:21:33.641Z,96140.42
2022-09-20T00:24:02.177Z,96141.11
2022-09-20T00:26:30.391Z,96143.75
2022-09-20T00:28:58.913Z,96149.98
2022-09-20T00:31:27.276Z,96150.21
2022-09-20T00:34:17.884Z,96147.19
2022-09-20T00:36:46.308Z,96147.69
2022-09-20T00:39:15.256Z,96147.60
2022-09-20T00:41:44.213Z,96149.94
2022-09-20T00:44:31.313Z,96148.94
2022-09-20T00:47:00.218Z,96148.21
2022-09-20T00:49:28.948Z,96145.79
2022-09-20T00:52:01.242Z,96148.29
2022-09-20T00:54:31.408Z,96144.96
2022-09-20T00:56:59.628Z,96141.54
2022-09-20T00:59:39.024Z,96138.48
2022-09-20T01:02:12.928Z,96137.59
2022-09-20T01:04:42.880Z,96134.59
2022-09-20T01:07:13.610Z,96136.79
2022-09-20T01:09:41.815Z,96141.27
2022-09-20T01:12:13.868Z,96139.71
2022-09-20T01:14:43.360Z,96136.27
2022-09-20T01:17:12.403Z,96132.54
2022-09-20T01:19:59.525Z,96129.16
2022-09-20T01:22:35.525Z,96126.17
2022-09-20T01:25:13.013Z,96122.77
2022-09-20T01:27:49.134Z,96119.77
2022-09-20T01:30:21.435Z,96120.62
2022-09-20T01:32:49.830Z,96119.58
2022-09-20T01:35:20.251Z,96115.51
2022-09-20T01:38:04.312Z,96118.29
2022-09-20T01:40:35.617Z,96112.60
2022-09-20T01:43:03.749Z,96117.16
2022-09-20T01:45:32.585Z,96117.79
2022-09-20T01:48:10.525Z,96113.95
2022-09-20T01:50:44.931Z,96114.52
2022-09-20T01:53:31.944Z,96116.23
2022-09-20T01:56:03.246Z,96116.69
2022-09-20T01:59:01.916Z,96112.63
2022-09-20T02:01:47.233Z,96116.36
2022-09-20T02:04:37.965Z,96115.70
2022-09-20T02:07:25.041Z,96117.52
2022-09-20T02:10:12.434Z,96121.16
2022-09-20T02:12:46.493Z,96126.66
2022-09-20T02:15:28.723Z,96128.56
2022-09-20T02:18:23.523Z,96132.70
2022-09-20T02:21:05.571Z,96133.27
2022-09-20T02:23:53.972Z,96131.15
2022-09-20T02:26:38.246Z,96131.30
2022-09-20T02:29:06.514Z,96134.21
2022-09-20T02:31:44.042Z,96136.38
2022-09-20T02:34:12.227Z,96135.42
2022-09-20T02:36:40.369Z,96136.59
2022-09-20T02:39:15.974Z,96137.17
2022-09-20T02:42:04.490Z,96138.84
2022-09-20T02:44:38.914Z,96134.61
2022-09-20T02:47:07.239Z,96138.33
2022-09-20T02:49:44.750Z,96140.79
2022-09-20T02:52:32.585Z,96142.14
2022-09-20T02:55:05.806Z,96142.33
2022-09-20T02:57:48.022Z,96140.81
2022-09-20T03:00:42.579Z,96142.58
2022-09-20T03:03:19.980Z,96141.58
2022-09-20T03:06:07.125Z,96149.52
2022-09-20T03:08:42.685Z,96147.67
2022-09-20T03:11:20.101Z,96149.83
2022-09-20T03:13:48.297Z,96148.27
2022-09-20T03:16:25.810Z,96148.79
2022-09-20T03:18:57.079Z,96150.48
2022-09-20T03:21:28.480Z,96148.89
2022-09-20T03:24:14.997Z,96149.39
2022-09-20T03:26:49.442Z,96146.98
2022-09-20T03:29:23.729Z,96150.23
2022-09-20T03:32:10.810Z,96149.08
2022-09-20T03:34:39.098Z,96151.88
2022-09-20T03:37:07.296Z,96152.55
2022-09-20T03:39:38.696Z,96153.42
2022-09-20T03:42:11.251Z,96157.60
2022-09-20T03:44:49.358Z,96157.86
2022-09-20T03:47:40.884Z,96160.32
2022-09-20T03:50:17.072Z,96158.66
2022-09-20T03:52:45.652Z,96163.32
2022-09-20T03:55:23.053Z,96164.35
2022-09-20T03:57:51.209Z,96165.73
2022-09-20T04:00:38.832Z,96164.51
2022-09-20T04:03:10.023Z,96168.11
2022-09-20T04:05:53.659Z,96169.92
2022-09-20T04:08:22.002Z,96168.80
2022-09-20T04:11:11.865Z,96172.63
2022-09-20T04:13:44.678Z,96176.37
2022-09-20T04:16:13.371Z,96178.15
2022-09-20T04:18:41.624Z,96180.13
2022-09-20T04:21:28.914Z,96180.31
2022-09-20T04:24:01.462Z,96184.06
2022-09-20T04:26:31.017Z,96186.14
2022-09-20T04:29:06.648Z,96188.09
2022-09-20T04:31:54.510Z,96194.13
2022-09-20T04:34:51.098Z,96195.11
2022-09-20T04:37:33.587Z,96195.63
2022-09-20T04:40:21.375Z,96195.03
2022-09-20T04:43:09.553Z,96197.13
2022-09-20T04:45:40.990Z,96196.35
2022-09-20T04:48:18.451Z,96192.49
2022-09-20T04:51:05.523Z,96196.02
2022-09-20T04:53:52.809Z,96202.91
2022-09-20T04:56:26.320Z,96199.48
2022-09-20T04:59:06.284Z,96206.41
2022-09-20T05:01:58.547Z,96206.88
2022-09-20T05:04:30.169Z,96200.27
2022-09-20T05:07:17.195Z,96201.60
2022-09-20T05:09:54.699Z,96207.19
2022-09-20T05:12:41.845Z,96210.02
2022-09-20T05:15:19.140Z,96212.02
2022-09-20T05:18:02.782Z,96210.44
2022-09-20T05:20:54.661Z,96209.41
2022-09-20T05:23:41.398Z,96208.15
2022-09-20T05:26:09.594Z,96210.50
2022-09-20T05:28:44.044Z,96212.15
2022-09-20T05:31:16.024Z,96210.27
2022-09-20T05:33:51.875Z,96210.06
2022-09-20T05:36:20.128Z,96214.48
2022-09-20T05:38:50.897Z,96213.98
2022-09-20T05:41:37.555Z,96209.73
2022-09-20T05:44:20.414Z,96215.05
2022-09-20T05:47:07.430Z,96218.48
2022-09-20T05:49:50.977Z,96218.48
2022-09-20T05:52:22.413Z,96218.36
2022-09-20T05:55:05.281Z,96219.63
2022-09-20T05:57:49.549Z,96220.35
2022-09-20T06:00:22.351Z,96221.38
2022-09-20T06:03:00.101Z,96222.52
2022-09-20T06:05:47.370Z,96223.43
2022-09-20T06:08:24.830Z,96219.70
2022-09-20T06:10:56.249Z,96219.48
2022-09-20T06:13:36.769Z,96223.20
2022-09-20T06:16:06.237Z,96220.23
2022-09-20T06:18:50.259Z,96223.63
2022-09-20T06:21:42.249Z,96221.20
2022-09-20T06:24:30.861Z,96225.72
2022-09-20T06:27:03.302Z,96225.05
2022-09-20T06:29:34.491Z,96226.48
2022-09-20T06:32:02.900Z,96225.58
2022-09-20T06:34:31.856Z,96228.13
2022-09-20T06:37:38.629Z,96231.30
2022-09-20T06:40:35.747Z,96234.71
2022-09-20T06:43:04.266Z,96231.45
2022-09-20T06:45:32.505Z,96227.75
2022-09-20T06:48:01.976Z,96226.61
2022-09-20T06:50:31.250Z,96225.52
2022-09-20T06:52:59.511Z,96226.20
2022-09-20T06:55:29.627Z,96228.92
2022-09-20T06:57:57.908Z,96231.21
2022-09-20T07:00:26.187Z,96234.13
2022-09-20T07:02:55.720Z,96233.71
2022-09-20T07:05:26.863Z,96236.00
2022-09-20T07:07:58.701Z,96235.48
2022-09-20T07:10:30.391Z,96238.31
2022-09-20T07:13:00.528Z,96235.56
2022-09-20T07:15:29.795Z,96238.89
2022-09-20T07:17:58.162Z,96238.14
2022-09-20T07:20:27.161Z,96242.30
2022-09-20T07:23:00.283Z,96245.39
2022-09-20T07:25:35.715Z,96249.33
2022-09-20T07:28:04.391Z,96248.13
2022-09-20T07:30:33.005Z,96250.51
2022-09-20T07:33:02.963Z,96244.95
2022-09-20T07:35:31.804Z,96248.09
2022-09-20T07:38:00.615Z,96247.73
2022-09-20T07:40:29.637Z,96249.70
2022-09-20T07:42:58.316Z,96252.81
2022-09-20T07:45:26.633Z,96250.38
2022-09-20T07:47:54.874Z,96249.35
2022-09-20T07:50:23.134Z,96248.91
2022-09-20T07:52:51.380Z,96247.16
2022-09-20T07:55:19.582Z,96248.44
2022-09-20T07:57:47.912Z,96245.58
2022-09-20T08:00:16.212Z,96246.45
2022-09-20T08:02:45.698Z,96240.45
2022-09-20T08:05:14.024Z,96239.64
2022-09-20T08:07:42.274Z,96242.38
2022-09-20T08:10:10.582Z,96242.60
2022-09-20T08:15:27.355Z,96242.26
2022-09-20T08:17:55.661Z,96240.40
2022-09-20T08:20:23.892Z,96242.39
2022-09-20T08:23:19.411Z,96239.98
2022-09-20T08:25:42.986Z,96244.85
2022-09-20T08:28:11.211Z,96245.52
2022-09-20T08:30:39.439Z,96238.65
2022-09-20T08:33:07.824Z,96236.74
2022-09-20T08:35:38.142Z,96238.30
2022-09-20T08:41:04.517Z,96238.83
2022-09-20T08:43:35.948Z,96235.73
2022-09-20T08:46:06.169Z,96228.36
2022-09-20T08:48:34.429Z,96227.56
2022-09-20T08:51:05.770Z,96224.75
2022-09-20T08:53:34.774Z,96226.84
2022-09-20T08:56:04.912Z,96227.45
2022-09-20T08:58:33.234Z,96228.33
2022-09-20T09:01:02.166Z,96224.66
2022-09-20T09:03:30.456Z,96219.78
2022-09-20T09:05:59.084Z,96215.64
2022-09-20T09:08:29.324Z,96214.93
2022-09-20T09:11:08.701Z,96211.71
2022-09-20T09:13:36.917Z,96217.26
2022-09-20T09:16:14.117Z,96219.02
2022-09-20T09:18:44.066Z,96216.90
2022-09-20T09:21:23.605Z,96213.76
2022-09-20T09:23:54.608Z,96213.29
2022-09-20T09:26:24.188Z,96208.26
2022-09-20T09:29:31.704Z,96209.61
2022-09-20T09:32:23.738Z,96212.85
2022-09-20T09:34:51.994Z,96211.27
2022-09-20T09:37:31.349Z,96214.55
2022-09-20T09:40:13.893Z,96220.09
2022-09-20T09:42:53.253Z,96225.77
2022-09-20T09:45:32.736Z,96224.54
2022-09-20T09:48:01.840Z,96225.60
2022-09-20T09:50:31.949Z,96229.92
2022-09-20T09:53:06.668Z,96230.19
2022-09-20T09:55:53.801Z,96227.95
2022-09-20T09:58:31.669Z,96225.86
2022-09-20T10:01:01.574Z,96232.38
2022-09-20T10:03:32.936Z,96231.06
2022-09-20T10:06:20.173Z,96232.40
2022-09-20T10:09:08.801Z,96230.20
2022-09-20T10:12:07.121Z,96235.02
2022-09-20T10:14:38.387Z,96239.48
2022-09-20T10:17:25.493Z,96238.38
2022-09-20T10:20:08.284Z,96237.02
2022-09-20T10:23:24.208Z,96237.61
2022-09-20T10:26:01.302Z,96235.88
2022-09-20T10:28:54.347Z,96242.48
2022-09-20T10:31:58.099Z,96241.88
2022-09-20T10:34:45.183Z,96248.64
2022-09-20T10:37:22.928Z,96247.07
2022-09-20T10:40:01.100Z,96255.92
2022-09-20T10:43:01.898Z,96254.38
2022-09-20T10:46:08.830Z,96255.48
2022-09-20T10:48:38.682Z,96252.34
2022-09-20T10:51:25.444Z,96247.44
2022-09-20T10:53:53.730Z,96248.24
2022-09-20T10:56:24.980Z,96247.02
2022-09-20T10:59:12.036Z,96245.73
2022-09-20T11:01:59.216Z,96249.42
2022-09-20T11:04:37.149Z,96253.93
2022-09-20T11:07:19.718Z,96253.43
2022-09-20T11:09:51.991Z,96255.52
2022-09-20T11:12:23.331Z,96256.70
2022-09-20T11:14:56.093Z,96253.88
2022-09-20T11:17:32.044Z,96244.61
2022-09-20T11:20:11.682Z,96250.65
2022-09-20T11:22:40.390Z,96251.48
2022-09-20T11:25:29.334Z,96255.38
2022-09-20T11:28:02.039Z,96256.15
2022-09-20T11:30:30.976Z,96257.20
2022-09-20T11:33:25.518Z,96256.54
2022-09-20T11:35:57.610Z,96250.00
2022-09-20T11:38:33.553Z,96244.31
2022-09-20T11:41:09.616Z,96243.26
2022-09-20T11:43:42.840Z,96235.42
2022-09-20T11:46:13.645Z,96237.14
2022-09-20T11:48:48.570Z,96240.89
2022-09-20T11:51:32.194Z,96243.46
2022-09-20T11:54:06.665Z,96247.20
2022-09-20T11:56:35.562Z,96247.85
2022-09-20T11:59:07.370Z,96249.84
2022-09-20T12:01:40.991Z,96249.11
2022-09-20T12:04:31.199Z,96252.31
2022-09-20T12:07:18.066Z,96249.65
2022-09-20T12:09:52.087Z,96247.77
2022-09-20T12:12:31.405Z,96250.16
2022-09-20T12:15:01.249Z,96250.39
2022-09-20T12:17:44.840Z,96248.30
2022-09-20T12:20:32.064Z,96253.41
2022-09-20T12:23:19.238Z,96260.31
2022-09-20T12:26:08.001Z,96255.21
2022-09-20T12:28:38.019Z,96259.72
2022-09-20T12:31:18.620Z,96262.41
2022-09-20T12:33:58.238Z,96258.23
2022-09-20T12:36:30.991Z,96255.76
2022-09-20T12:39:02.273Z,96256.22
2022-09-20T12:41:46.086Z,96256.55
2022-09-20T12:44:37.776Z,96255.02
2022-09-20T12:47:06.601Z,96253.95
2022-09-20T12:49:58.929Z,96256.58
2022-09-20T12:52:47.994Z,96256.98
2022-09-20T12:55:34.834Z,96261.13
2022-09-20T12:58:12.294Z,96262.65
2022-09-20T13:00:46.868Z,96262.88
2022-09-20T13:03:15.187Z,96262.81
2022-09-20T13:05:47.286Z,96260.14
2022-09-20T13:08:18.096Z,96261.14
2022-09-20T13:11:06.171Z,96260.08
2022-09-20T13:13:43.169Z,96266.40
2022-09-20T13:16:22.578Z,96265.76
2022-09-20T13:18:56.990Z,96274.20
2022-09-20T13:21:27.844Z,96276.66
2022-09-20T13:23:57.046Z,96272.13
2022-09-20T13:26:39.724Z,96273.90
2022-09-20T13:29:10.322Z,96272.00
2022-09-20T13:31:38.945Z,96268.46
2022-09-20T13:34:24.544Z,96270.55
2022-09-20T13:36:56.473Z,96267.77
2022-09-20T13:39:35.353Z,96274.02
2022-09-20T13:42:19.616Z,96274.49
2022-09-20T13:44:48.689Z,96275.02
2022-09-20T13:47:30.625Z,96272.52
2022-09-20T13:50:03.627Z,96273.16
2022-09-20T13:52:32.487Z,96269.44
2022-09-20T13:55:01.357Z,96270.46
2022-09-20T13:57:30.433Z,96271.15
2022-09-20T13:59:59.033Z,96269.58
2022-09-20T14:02:31.297Z,96272.05
2022-09-20T14:05:00.857Z,96269.31
2022-09-20T14:07:29.926Z,96268.90
2022-09-20T14:09:59.129Z,96270.34
2022-09-20T14:12:27.948Z,96266.92
2022-09-20T14:14:57.213Z,96269.23
2022-09-20T14:17:26.084Z,96265.00
2022-09-20T14:19:55.646Z,96266.64
2022-09-20T14:22:28.123Z,96270.22
2022-09-20T14:25:12.718Z,96269.10
2022-09-20T14:27:41.007Z,96271.08
2022-09-20T14:30:28.444Z,96272.44
2022-09-20T14:32:56.764Z,96274.50
2022-09-20T14:35:25.049Z,96274.98
2022-09-20T14:37:59.855Z,96275.89
2022-09-20T14:40:32.386Z,96274.70
2022-09-20T14:43:02.660Z,96277.19
2022-09-20T14:45:35.353Z,96279.16
2022-09-20T14:48:11.358Z,96278.52
2022-09-20T14:50:44.039Z,96275.56
2022-09-20T14:53:15.259Z,96276.90
2022-09-20T14:56:03.689Z,96275.95
2022-09-20T14:58:32.553Z,96280.98
2022-09-20T15:01:05.478Z,96279.80
2022-09-20T15:03:39.148Z,96284.34
2022-09-20T15:06:10.718Z,96286.40
2022-09-20T15:08:45.485Z,96287.80
2022-09-20T15:11:18.747Z,96285.57
2022-09-20T15:13:47.860Z,96284.86
2022-09-20T15:16:18.405Z,96286.59
2022-09-20T15:18:46.925Z,96287.64
2022-09-20T15:21:15.257Z,96284.35
2022-09-20T15:23:44.191Z,96281.28
2022-09-20T15:26:13.919Z,96281.77
2022-09-20T15:28:42.431Z,96286.20
2022-09-20T15:31:11.132Z,96286.92
2022-09-20T15:33:39.386Z,96288.91
2022-09-20T15:36:07.957Z,96294.80
2022-09-20T15:38:36.351Z,96295.83
2022-09-20T15:41:04.913Z,96300.41
2022-09-20T15:43:33.242Z,96299.29
2022-09-20T15:46:16.443Z,96298.45
2022-09-20T15:48:44.688Z,96300.08
2022-09-20T15:51:13.769Z,96299.49
2022-09-20T15:53:46.546Z,96303.66
2022-09-20T15:56:15.796Z,96302.82
2022-09-20T15:58:46.468Z,96300.23
2022-09-20T16:01:16.877Z,96305.52
2022-09-20T16:03:49.536Z,96305.20
2022-09-20T16:06:18.036Z,96303.67
2022-09-20T16:08:46.606Z,96304.66
2022-09-20T16:11:20.471Z,96303.65
2022-09-20T16:13:54.942Z,96304.69
2022-09-20T16:16:23.273Z,96305.23
2022-09-20T16:19:10.811Z,96311.62
2022-09-20T16:21:39.886Z,96311.71
2022-09-20T16:24:08.789Z,96313.77
2022-09-20T16:26:38.227Z,96312.45
2022-09-20T16:29:09.282Z,96317.68
2022-09-20T16:31:42.187Z,96318.48
2022-09-20T16:34:17.194Z,96320.86
2022-09-20T16:36:55.916Z,96322.30
2022-09-20T16:39:27.952Z,96327.47
2022-09-20T16:41:57.573Z,96329.52
2022-09-20T16:44:25.872Z,96334.04
2022-09-20T16:46:54.183Z,96333.51
2022-09-20T16:49:24.872Z,96334.31
2022-09-20T16:51:53.066Z,96337.06
2022-09-20T16:54:21.686Z,96337.77
2022-09-20T16:56:51.354Z,96337.05
2022-09-20T16:59:22.872Z,96337.81
2022-09-20T17:01:51.693Z,96334.19
2022-09-20T17:04:21.296Z,96338.88
2022-09-20T17:06:50.479Z,96339.69
2022-09-20T17:09:18.727Z,96342.30
2022-09-20T17:11:49.893Z,96345.04
2022-09-20T17:14:20.516Z,96345.24
2022-09-20T17:16:49.414Z,96343.41
2022-09-20T17:19:19.088Z,96347.17
2022-09-20T17:21:50.797Z,96348.45
2022-09-20T17:24:20.436Z,96350.88
2022-09-20T17:26:50.513Z,96350.88
2022-09-20T17:29:19.615Z,96346.88
2022-09-20T17:31:53.940Z,96349.39
2022-09-20T17:34:24.827Z,96349.85
2022-09-20T17:36:54.368Z,96355.73
2022-09-20T17:39:22.613Z,96358.30
2022-09-20T17:41:51.023Z,96360.20
2022-09-20T17:44:19.505Z,96357.92
2022-09-20T17:46:50.207Z,96356.85
2022-09-20T17:49:19.824Z,96357.10
2022-09-20T17:51:52.583Z,96361.95
2022-09-20T17:54:21.581Z,96363.55
2022-09-20T17:56:51.222Z,96363.83
2022-09-20T17:59:20.261Z,96366.17
2022-09-20T18:01:50.139Z,96371.55
2022-09-20T18:04:21.133Z,96375.56
2022-09-20T18:06:50.569Z,96376.20
2022-09-20T18:09:20.149Z,96374.45
2022-09-20T18:11:50.036Z,96378.79
2022-09-20T18:14:20.249Z,96380.80
2022-09-20T18:16:51.593Z,96378.28
2022-09-20T18:19:21.796Z,96383.72
2022-09-20T18:21:50.488Z,96384.65
2022-09-20T18:24:18.780Z,96388.32
2022-09-20T18:26:47.083Z,96388.38
2022-09-20T18:29:18.286Z,96386.69
2022-09-20T18:31:52.328Z,96391.85
2022-09-20T18:34:22.342Z,96391.34
2022-09-20T18:36:55.430Z,96393.30
2022-09-20T18:39:25.120Z,96396.23
2022-09-20T18:41:53.417Z,96396.51
2022-09-20T18:44:22.707Z,96397.33
2022-09-20T18:46:53.641Z,96399.13
2022-09-20T18:49:21.982Z,96400.67
2022-09-20T18:51:50.756Z,96400.31
2022-09-20T18:54:19.103Z,96397.69
2022-09-20T18:56:48.701Z,96398.61
2022-09-20T18:59:18.294Z,96399.79
2022-09-20T19:01:49.772Z,96403.69
2022-09-20T19:04:27.320Z,96402.84
2022-09-20T19:07:03.824Z,96406.33
2022-09-20T19:09:58.462Z,96405.48
2022-09-20T19:12:33.196Z,96408.45
2022-09-20T19:15:20.242Z,96407.94
2022-09-20T19:18:07.263Z,96409.06
2022-09-20T19:20:45.120Z,96407.91
2022-09-20T19:23:29.433Z,96408.81
2022-09-20T19:26:08.066Z,96408.88
2022-09-20T19:28:36.497Z,96416.67
2022-09-20T19:31:04.894Z,96416.95
2022-09-20T19:33:33.263Z,96414.65
2022-09-20T19:36:03.400Z,96409.58
2022-09-20T19:38:37.905Z,96417.26
2022-09-20T19:41:12.716Z,96415.67
2022-09-20T19:44:00.223Z,96420.75
2022-09-20T19:46:40.788Z,96421.48
2022-09-20T19:49:28.105Z,96426.85
2022-09-20T19:51:57.312Z,96426.48
2022-09-20T19:54:25.785Z,96426.08
2022-09-20T19:56:55.640Z,96423.79
2022-09-20T19:59:25.512Z,96423.34
2022-09-20T20:01:54.463Z,96423.97
2022-09-20T20:04:22.864Z,96429.52
2022-09-20T20:07:06.520Z,96431.94
2022-09-20T20:09:46.994Z,96432.96
2022-09-20T20:12:25.826Z,96432.83
2022-09-20T20:15:00.475Z,96433.81
2022-09-20T20:17:31.809Z,96433.23
2022-09-20T20:20:17.670Z,96430.95
2022-09-20T20:23:05.306Z,96431.02
2022-09-20T20:25:42.779Z,96431.69
2022-09-20T20:28:11.033Z,96435.85
2022-09-20T20:30:39.306Z,96438.03
2022-09-20T20:33:07.572Z,96436.43
2022-09-20T20:35:37.654Z,96435.34
2022-09-20T20:38:11.739Z,96436.19
2022-09-20T20:40:40.971Z,96439.10
2022-09-20T20:43:10.128Z,96442.23
2022-09-20T20:45:39.137Z,96442.98
2022-09-20T20:48:07.391Z,96444.39
2022-09-20T20:50:35.614Z,96441.13
2022-09-20T20:53:03.845Z,96438.36
2022-09-20T20:55:32.064Z,96439.52
2022-09-20T20:58:00.278Z,96441.23
2022-09-20T21:00:28.585Z,96440.38
2022-09-20T21:03:00.688Z,96440.00
2022-09-20T21:05:29.041Z,96440.66
2022-09-20T21:07:58.579Z,96437.43
2022-09-20T21:10:26.840Z,96440.67
2022-09-20T21:12:55.057Z,96441.63
2022-09-20T21:15:23.252Z,96437.50
2022-09-20T21:17:55.395Z,96439.64
2022-09-20T21:20:23.618Z,96434.73
2022-09-20T21:22:51.846Z,96434.92
2022-09-20T21:25:20.074Z,96436.52
2022-09-20T21:27:48.302Z,96433.42
2022-09-20T21:30:16.614Z,96437.66
2022-09-20T21:32:45.035Z,96442.23
2022-09-20T21:35:13.266Z,96440.06
2022-09-20T21:37:41.428Z,96441.10
2022-09-20T21:40:10.825Z,96442.17
2022-09-20T21:42:39.139Z,96443.84
2022-09-20T21:45:11.309Z,96444.08
2022-09-20T21:47:39.506Z,96442.13
2022-09-20T21:50:08.150Z,96441.20
2022-09-20T21:52:36.334Z,96440.25
2022-09-20T21:55:06.028Z,96438.88
2022-09-20T21:57:34.239Z,96441.60
2022-09-20T22:00:02.425Z,96440.73
2022-09-20T22:02:40.994Z,96444.48
2022-09-20T22:05:09.209Z,96444.63
2022-09-20T22:07:37.421Z,96445.17
2022-09-20T22:10:05.955Z,96442.86
2022-09-20T22:12:34.158Z,96443.54
2022-09-20T22:15:02.373Z,96444.02
2022-09-20T22:17:30.583Z,96439.60
2022-09-20T22:19:59.740Z,96441.30
2022-09-20T22:22:28.119Z,96442.18
2022-09-20T22:24:56.322Z,96441.33
2022-09-20T22:27:24.531Z,96437.88
2022-09-20T22:29:52.739Z,96441.98
2022-09-20T22:32:23.036Z,96441.00
2022-09-20T22:34:51.296Z,96442.44
2022-09-20T22:37:19.774Z,96441.48
2022-09-20T22:39:48.025Z,96439.67
2022-09-20T22:42:16.295Z,96443.82
2022-09-20T22:44:44.539Z,96440.92
2022-09-20T22:47:12.772Z,96442.98
2022-09-20T22:49:41.007Z,96445.08
2022-09-20T22:52:09.216Z,96445.44
2022-09-20T22:54:37.418Z,96451.21
2022-09-20T22:57:05.964Z,96451.02
2022-09-20T22:59:34.178Z,96454.48
2022-09-20T23:02:02.374Z,96455.52
2022-09-20T23:04:30.588Z,96457.11
2022-09-20T23:06:58.795Z,96456.27
2022-09-20T23:09:30.522Z,96456.89
2022-09-20T23:11:58.817Z,96458.38
2022-09-20T23:14:27.107Z,96458.49
2022-09-20T23:16:55.407Z,96455.00
2022-09-20T23:19:23.637Z,96457.03
2022-09-20T23:21:51.844Z,96458.62
2022-09-20T23:24:20.044Z,96457.81
2022-09-20T23:26:48.265Z,96459.63
2022-09-20T23:29:17.013Z,96456.45
2022-09-20T23:31:47.127Z,96456.17
2022-09-20T23:34:17.671Z,96452.49
2022-09-20T23:36:46.371Z,96450.94
2022-09-20T23:39:14.766Z,96451.17
2022-09-20T23:41:46.952Z,96450.63
2022-09-20T23:44:16.932Z,96448.98
2022-09-20T23:46:45.140Z,96449.68
2022-09-20T23:49:13.336Z,96449.16
2022-09-20T23:51:41.546Z,96448.35
2022-09-20T23:54:09.738Z,96450.23
2022-09-20T23:56:38.406Z,96452.42
2022-09-20T23:59:06.633Z,96448.80
